createdAt,value
2018-09-29T00:01:40.054Z,6.66
2018-09-29T00:04:08.656Z,6.58
2018-09-29T00:06:37.319Z,6.48
2018-09-29T00:09:08.510Z,6.42
2018-09-29T00:11:37.042Z,6.39
2018-09-29T00:14:05.708Z,6.39
2018-09-29T00:16:34.421Z,6.34
2018-09-29T00:19:03.125Z,6.37
2018-09-29T00:21:31.678Z,6.33
2018-09-29T00:24:00.737Z,6.29
2018-09-29T00:26:29.315Z,6.30
2018-09-29T00:28:57.915Z,6.40
2018-09-29T00:31:26.834Z,6.35
2018-09-29T00:33:56.202Z,6.27
2018-09-29T00:36:24.921Z,6.23
2018-09-29T00:38:53.560Z,6.24
2018-09-29T00:41:22.206Z,6.18
2018-09-29T00:43:50.866Z,6.16
2018-09-29T00:46:19.857Z,6.17
2018-09-29T00:48:49.081Z,6.10
2018-09-29T00:51:17.660Z,6.10
2018-09-29T00:53:46.486Z,6.15
2018-09-29T00:56:15.175Z,6.17
2018-09-29T00:58:44.346Z,6.18
2018-09-29T01:01:12.917Z,6.25
2018-09-29T01:03:41.521Z,6.15
2018-09-29T01:06:10.093Z,6.14
2018-09-29T01:08:38.698Z,6.10
2018-09-29T01:11:07.489Z,6.08
2018-09-29T01:13:36.646Z,6.00
2018-09-29T01:16:05.565Z,6.01
2018-09-29T01:18:34.196Z,5.94
2018-09-29T01:21:05.789Z,5.87
2018-09-29T01:23:34.903Z,5.82
2018-09-29T01:26:04.146Z,5.82
2018-09-29T01:28:32.698Z,5.90
2018-09-29T01:31:01.410Z,5.88
2018-09-29T01:33:30.633Z,6.01
2018-09-29T01:35:59.181Z,6.23
2018-09-29T01:41:02.866Z,5.75
2018-09-29T01:43:31.482Z,5.45
2018-09-29T01:46:00.009Z,5.23
2018-09-29T01:48:30.649Z,5.07
2018-09-29T01:50:59.393Z,4.97
2018-09-29T01:53:28.138Z,4.89
2018-09-29T01:55:57.450Z,4.80
2018-09-29T01:58:26.023Z,4.82
2018-09-29T02:00:54.730Z,4.80
2018-09-29T02:03:23.422Z,4.81
2018-09-29T02:05:52.014Z,4.96
2018-09-29T02:08:20.725Z,5.01
2018-09-29T02:10:49.621Z,5.04
2018-09-29T02:13:18.957Z,5.03
2018-09-29T02:15:47.592Z,5.17
2018-09-29T02:18:16.107Z,5.15
2018-09-29T02:20:45.242Z,5.14
2018-09-29T02:23:13.838Z,5.23
2018-09-29T02:25:42.436Z,5.35
2018-09-29T02:28:11.047Z,5.31
2018-09-29T02:30:39.851Z,5.49
2018-09-29T02:33:08.689Z,5.55
2018-09-29T02:35:37.754Z,5.53
2018-09-29T02:38:06.621Z,5.58
2018-09-29T02:40:35.168Z,5.61
2018-09-29T02:43:03.790Z,5.57
2018-09-29T02:45:32.529Z,5.57
2018-09-29T02:48:01.166Z,5.53
2018-09-29T02:50:30.263Z,5.62
2018-09-29T02:52:58.856Z,5.62
2018-09-29T02:55:27.598Z,5.56
2018-09-29T02:57:56.301Z,5.47
2018-09-29T03:00:25.122Z,5.56
2018-09-29T03:02:53.714Z,5.47
2018-09-29T03:05:22.316Z,5.38
2018-09-29T03:07:51.109Z,5.44
2018-09-29T03:10:19.866Z,5.36
2018-09-29T03:12:48.424Z,5.33
2018-09-29T03:15:17.193Z,5.27
2018-09-29T03:17:45.779Z,5.21
2018-09-29T03:20:14.362Z,5.10
2018-09-29T03:22:42.912Z,5.00
2018-09-29T03:25:11.577Z,4.85
2018-09-29T03:27:40.222Z,4.74
2018-09-29T03:30:08.837Z,4.62
2018-09-29T03:32:37.376Z,4.50
2018-09-29T03:35:06.499Z,4.40
2018-09-29T03:37:35.733Z,4.28
2018-09-29T03:40:05.129Z,4.23
2018-09-29T03:42:33.706Z,4.16
2018-09-29T03:45:02.602Z,4.17
2018-09-29T03:47:32.022Z,4.13
2018-09-29T03:50:00.634Z,4.09
2018-09-29T03:52:29.180Z,4.07
2018-09-29T03:54:57.793Z,4.03
2018-09-29T03:57:26.378Z,4.00
2018-09-29T03:59:54.986Z,3.91
2018-09-29T04:02:23.650Z,3.93
2018-09-29T04:04:52.680Z,4.03
2018-09-29T04:07:21.262Z,4.26
2018-09-29T04:09:50.866Z,4.24
2018-09-29T04:12:19.446Z,4.14
2018-09-29T04:14:48.339Z,4.08
2018-09-29T04:17:16.887Z,4.03
2018-09-29T04:19:45.627Z,3.98
2018-09-29T04:22:14.210Z,4.01
2018-09-29T04:24:42.945Z,4.09
2018-09-29T04:27:11.914Z,4.38
2018-09-29T04:29:40.700Z,4.46
2018-09-29T04:32:09.298Z,4.47
2018-09-29T04:34:37.883Z,4.53
2018-09-29T04:37:06.877Z,4.52
2018-09-29T04:39:35.508Z,4.50
2018-09-29T04:42:04.368Z,4.54
2018-09-29T04:44:33.232Z,4.55
2018-09-29T04:47:01.909Z,4.57
2018-09-29T04:49:30.530Z,4.64
2018-09-29T04:51:59.094Z,4.64
2018-09-29T04:54:27.733Z,4.77
2018-09-29T04:56:56.314Z,4.85
2018-09-29T04:59:25.230Z,4.87
2018-09-29T05:01:54.485Z,4.83
2018-09-29T05:04:23.901Z,4.83
2018-09-29T05:06:52.509Z,4.85
2018-09-29T05:09:21.268Z,4.91
2018-09-29T05:11:49.861Z,4.88
2018-09-29T05:14:18.977Z,4.93
2018-09-29T05:16:47.531Z,5.05
2018-09-29T05:19:16.166Z,5.19
2018-09-29T05:21:45.045Z,5.33
2018-09-29T05:24:13.753Z,5.43
2018-09-29T05:26:42.613Z,5.38
2018-09-29T05:29:11.166Z,5.52
2018-09-29T05:31:40.403Z,5.54
2018-09-29T05:34:08.950Z,5.60
2018-09-29T05:36:37.629Z,5.76
2018-09-29T05:39:07.854Z,5.86
2018-09-29T05:41:36.401Z,5.91
2018-09-29T05:44:05.094Z,6.03
2018-09-29T05:46:34.081Z,6.18
2018-09-29T05:49:03.138Z,6.37
2018-09-29T05:51:32.073Z,6.55
2018-09-29T05:54:00.825Z,6.85
2018-09-29T05:56:29.604Z,7.82
2018-09-29T05:58:58.203Z,9.55
2018-09-29T06:01:27.096Z,11.47
2018-09-29T06:03:56.504Z,13.11
2018-09-29T06:06:25.173Z,14.27
2018-09-29T06:08:53.820Z,15.17
2018-09-29T06:11:22.449Z,16.09
2018-09-29T06:13:51.050Z,17.11
2018-09-29T06:16:19.798Z,18.19
2018-09-29T06:18:49.034Z,19.06
2018-09-29T06:21:17.569Z,19.70
2018-09-29T06:23:46.292Z,19.72
2018-09-29T06:26:15.242Z,19.91
2018-09-29T06:28:43.800Z,20.59
2018-09-29T06:31:12.498Z,20.74
2018-09-29T06:33:41.590Z,21.17
2018-09-29T06:36:10.134Z,21.87
2018-09-29T06:38:39.310Z,22.29
2018-09-29T06:41:08.927Z,22.42
2018-09-29T06:43:37.647Z,22.98
2018-09-29T06:46:06.459Z,23.62
2018-09-29T06:48:35.166Z,24.08
2018-09-29T06:51:04.324Z,24.55
2018-09-29T06:53:32.882Z,25.07
2018-09-29T06:56:01.957Z,25.03
2018-09-29T06:58:32.280Z,24.84
2018-09-29T07:01:01.599Z,24.94
2018-09-29T07:03:30.226Z,24.60
2018-09-29T07:05:58.803Z,24.98
2018-09-29T07:08:27.689Z,25.61
2018-09-29T07:10:56.907Z,26.11
2018-09-29T07:13:26.030Z,26.07
2018-09-29T07:15:55.242Z,25.98
2018-09-29T07:18:24.514Z,25.64
2018-09-29T07:20:53.703Z,25.52
2018-09-29T07:23:23.380Z,25.96
2018-09-29T07:25:52.610Z,26.56
2018-09-29T07:28:21.414Z,26.91
2018-09-29T07:30:51.156Z,27.00
2018-09-29T07:33:19.910Z,27.35
2018-09-29T07:35:49.248Z,27.51
2018-09-29T07:38:18.654Z,27.85
2018-09-29T07:40:47.909Z,27.77
2018-09-29T07:43:17.070Z,28.08
2018-09-29T07:45:46.251Z,28.37
2018-09-29T07:48:15.450Z,28.85
2018-09-29T07:50:44.602Z,28.78
2018-09-29T07:53:13.730Z,28.51
2018-09-29T07:55:42.910Z,27.67
2018-09-29T07:58:12.086Z,26.68
2018-09-29T08:00:41.185Z,26.04
2018-09-29T08:03:10.368Z,26.75
2018-09-29T08:05:39.715Z,26.62
2018-09-29T08:08:08.768Z,27.12
2018-09-29T08:10:37.822Z,27.72
2018-09-29T08:13:06.388Z,28.22
2018-09-29T08:15:34.954Z,27.97
2018-09-29T08:18:03.551Z,27.95
2018-09-29T08:20:32.227Z,27.53
2018-09-29T08:23:00.977Z,26.94
2018-09-29T08:25:29.601Z,26.21
2018-09-29T08:27:58.166Z,25.02
2018-09-29T08:30:26.771Z,23.80
2018-09-29T08:32:55.322Z,22.49
2018-09-29T08:35:23.866Z,21.20
2018-09-29T08:37:52.470Z,20.44
2018-09-29T08:40:21.334Z,19.92
2018-09-29T08:42:50.089Z,19.29
2018-09-29T08:45:18.685Z,18.82
2018-09-29T08:47:47.331Z,18.33
2018-09-29T08:50:16.010Z,18.04
2018-09-29T08:52:44.768Z,18.00
2018-09-29T08:55:13.467Z,17.85
2018-09-29T08:57:42.039Z,17.84
2018-09-29T09:00:10.622Z,17.83
2018-09-29T09:02:39.215Z,17.88
2018-09-29T09:05:07.788Z,17.74
2018-09-29T09:07:36.387Z,17.61
2018-09-29T09:10:05.290Z,17.57
2018-09-29T09:12:33.966Z,17.44
2018-09-29T09:15:02.610Z,17.35
2018-09-29T09:17:31.205Z,17.25
2018-09-29T09:19:59.879Z,17.09
2018-09-29T09:22:28.462Z,16.89
2018-09-29T09:24:57.159Z,16.76
2018-09-29T09:27:25.722Z,16.74
2018-09-29T09:29:54.436Z,16.73
2018-09-29T09:32:23.353Z,16.77
2018-09-29T09:34:52.032Z,16.80
2018-09-29T09:37:20.777Z,16.84
2018-09-29T09:39:49.332Z,16.88
2018-09-29T09:42:17.896Z,16.87
2018-09-29T09:44:46.499Z,16.91
2018-09-29T09:47:15.261Z,17.03
2018-09-29T09:49:44.110Z,17.05
2018-09-29T09:52:12.859Z,16.91
2018-09-29T09:54:41.513Z,16.86
2018-09-29T09:57:10.100Z,16.98
2018-09-29T09:59:38.666Z,17.08
2018-09-29T10:02:12.677Z,17.10
2018-09-29T10:04:47.709Z,17.09
2018-09-29T10:07:16.309Z,16.99
2018-09-29T10:09:46.093Z,16.79
2018-09-29T10:12:14.773Z,16.69
2018-09-29T10:14:45.735Z,16.77
2018-09-29T10:17:14.423Z,16.79
2018-09-29T10:19:43.141Z,16.90
2018-09-29T10:22:11.771Z,17.14
2018-09-29T10:24:40.303Z,17.28
2018-09-29T10:27:08.894Z,17.35
2018-09-29T10:29:37.488Z,17.40
2018-09-29T10:32:06.129Z,17.20
2018-09-29T10:34:34.817Z,16.95
2018-09-29T10:37:03.377Z,16.84
2018-09-29T10:39:31.949Z,16.97
2018-09-29T10:42:00.568Z,17.18
2018-09-29T10:44:29.163Z,17.53
2018-09-29T10:46:57.697Z,17.83
2018-09-29T10:51:53.492Z,18.09
2018-09-29T10:54:22.275Z,17.92
2018-09-29T10:56:50.876Z,17.76
2018-09-29T10:59:20.082Z,17.40
2018-09-29T11:01:48.909Z,16.95
2018-09-29T11:04:17.475Z,16.60
2018-09-29T11:06:46.075Z,16.38
2018-09-29T11:09:14.743Z,16.30
2018-09-29T11:11:43.330Z,16.20
2018-09-29T11:14:11.956Z,16.05
2018-09-29T11:16:40.701Z,15.82
2018-09-29T11:19:09.298Z,15.67
2018-09-29T11:21:37.845Z,15.69
2018-09-29T11:24:06.527Z,15.90
2018-09-29T11:26:35.394Z,16.22
2018-09-29T11:29:03.956Z,16.60
2018-09-29T11:31:32.481Z,17.02
2018-09-29T11:34:01.041Z,17.25
2018-09-29T11:36:29.669Z,17.36
2018-09-29T11:38:58.250Z,17.37
2018-09-29T11:41:26.929Z,17.31
2018-09-29T11:43:55.642Z,17.36
2018-09-29T11:46:24.325Z,17.34
2018-09-29T11:48:52.927Z,17.30
2018-09-29T11:51:21.509Z,17.25
2018-09-29T11:53:50.030Z,17.20
2018-09-29T11:56:18.671Z,17.34
2018-09-29T11:58:47.490Z,17.57
2018-09-29T12:01:16.170Z,17.76
2018-09-29T12:03:45.028Z,17.94
2018-09-29T12:06:13.616Z,18.23
2018-09-29T12:08:42.396Z,18.47
2018-09-29T12:11:10.989Z,18.63
2018-09-29T12:13:39.533Z,18.52
2018-09-29T12:16:08.393Z,18.37
2018-09-29T12:18:37.166Z,18.06
2018-09-29T12:21:05.808Z,17.69
2018-09-29T12:23:34.393Z,17.46
2018-09-29T12:26:02.936Z,17.28
2018-09-29T12:28:31.533Z,17.24
2018-09-29T12:31:00.165Z,17.37
2018-09-29T12:33:28.805Z,17.67
2018-09-29T12:35:57.432Z,17.95
2018-09-29T12:38:26.025Z,18.18
2018-09-29T12:40:54.639Z,18.26
2018-09-29T12:43:23.201Z,18.01
2018-09-29T12:45:51.759Z,17.68
2018-09-29T12:48:20.376Z,17.32
2018-09-29T12:50:49.032Z,17.03
2018-09-29T12:53:17.753Z,16.80
2018-09-29T12:55:46.424Z,16.67
2018-09-29T12:58:14.975Z,16.62
2018-09-29T13:00:43.648Z,16.69
2018-09-29T13:03:12.213Z,16.85
2018-09-29T13:05:40.831Z,16.96
2018-09-29T13:08:09.490Z,16.98
2018-09-29T13:10:38.054Z,16.92
2018-09-29T13:13:07.142Z,16.76
2018-09-29T13:15:35.714Z,16.58
2018-09-29T13:18:04.339Z,16.41
2018-09-29T13:20:32.878Z,16.22
2018-09-29T13:23:01.521Z,16.07
2018-09-29T13:25:30.337Z,15.87
2018-09-29T13:27:59.010Z,15.68
2018-09-29T13:30:27.625Z,15.47
2018-09-29T13:32:56.162Z,15.28
2018-09-29T13:35:25.030Z,15.14
2018-09-29T13:37:53.630Z,14.89
2018-09-29T13:40:22.228Z,14.66
2018-09-29T13:42:50.981Z,14.53
2018-09-29T13:45:19.853Z,14.40
2018-09-29T13:47:49.077Z,14.22
2018-09-29T13:50:17.845Z,14.11
2018-09-29T13:52:46.404Z,13.95
2018-09-29T13:55:15.162Z,13.81
2018-09-29T13:57:43.726Z,13.73
2018-09-29T14:00:12.357Z,13.80
2018-09-29T14:02:41.108Z,13.92
2018-09-29T14:05:10.409Z,14.05
2018-09-29T14:07:39.693Z,14.18
2018-09-29T14:10:08.318Z,14.29
2018-09-29T14:12:37.094Z,14.42
2018-09-29T14:15:06.235Z,14.49
2018-09-29T14:17:35.382Z,14.57
2018-09-29T14:20:04.080Z,14.55
2018-09-29T14:22:32.883Z,14.56
2018-09-29T14:25:02.535Z,14.63
2018-09-29T14:27:31.297Z,14.73
2018-09-29T14:30:00.076Z,14.68
2018-09-29T14:32:28.974Z,14.78
2018-09-29T14:34:57.757Z,14.88
2018-09-29T14:37:26.373Z,15.00
2018-09-29T14:39:55.064Z,15.30
2018-09-29T14:42:23.949Z,15.39
2018-09-29T14:44:53.047Z,15.44
2018-09-29T14:47:22.847Z,15.57
2018-09-29T14:49:51.594Z,15.64
2018-09-29T14:52:20.443Z,15.54
2018-09-29T14:54:49.327Z,15.49
2018-09-29T14:57:17.977Z,15.48
2018-09-29T14:59:47.784Z,15.54
2018-09-29T15:02:16.334Z,15.49
2018-09-29T15:04:44.995Z,15.50
2018-09-29T15:07:13.606Z,15.48
2018-09-29T15:09:42.246Z,15.51
2018-09-29T15:12:10.830Z,15.45
2018-09-29T15:14:39.372Z,15.42
2018-09-29T15:17:07.956Z,15.33
2018-09-29T15:19:36.526Z,15.26
2018-09-29T15:22:05.130Z,15.15
2018-09-29T15:24:33.817Z,15.02
2018-09-29T15:27:04.391Z,14.96
2018-09-29T15:29:33.206Z,14.82
2018-09-29T15:32:02.029Z,14.69
2018-09-29T15:34:30.738Z,14.57
2018-09-29T15:36:59.361Z,14.45
2018-09-29T15:39:28.108Z,14.38
2018-09-29T15:41:56.667Z,14.28
2018-09-29T15:44:25.242Z,14.08
2018-09-29T15:46:54.021Z,14.00
2018-09-29T15:49:22.611Z,13.87
2018-09-29T15:51:51.181Z,13.75
2018-09-29T15:54:19.755Z,13.59
2018-09-29T15:56:48.329Z,13.44
2018-09-29T15:59:16.969Z,13.20
2018-09-29T16:01:45.525Z,13.12
2018-09-29T16:04:14.234Z,13.01
2018-09-29T16:06:42.863Z,12.93
2018-09-29T16:09:11.502Z,12.88
2018-09-29T16:11:41.212Z,12.79
2018-09-29T16:14:10.235Z,12.64
2018-09-29T16:16:38.928Z,12.53
2018-09-29T16:19:07.675Z,12.46
2018-09-29T16:21:37.400Z,12.38
2018-09-29T16:24:06.201Z,12.38
2018-09-29T16:26:35.581Z,12.40
2018-09-29T16:29:05.499Z,12.51
2018-09-29T16:31:34.329Z,12.46
2018-09-29T16:34:03.022Z,12.14
2018-09-29T16:36:31.640Z,11.80
2018-09-29T16:39:00.202Z,11.50
2018-09-29T16:41:28.787Z,11.22
2018-09-29T16:43:57.940Z,11.00
2018-09-29T16:46:26.521Z,10.88
2018-09-29T16:48:55.373Z,10.71
2018-09-29T16:51:25.570Z,10.55
2018-09-29T16:54:01.992Z,10.50
2018-09-29T16:56:30.610Z,10.57
2018-09-29T16:58:59.166Z,10.59
2018-09-29T17:01:27.983Z,10.41
2018-09-29T17:03:56.643Z,10.27
2018-09-29T17:06:25.497Z,10.15
2018-09-29T17:08:54.821Z,10.00
2018-09-29T17:11:23.374Z,9.91
2018-09-29T17:13:51.913Z,9.76
2018-09-29T17:16:20.464Z,9.66
2018-09-29T17:18:49.060Z,9.56
2018-09-29T17:21:17.661Z,9.49
2018-09-29T17:23:46.670Z,9.41
2018-09-29T17:26:15.430Z,9.36
2018-09-29T17:28:43.976Z,9.38
2018-09-29T17:31:12.552Z,9.40
2018-09-29T17:33:41.171Z,9.29
2018-09-29T17:36:09.712Z,9.23
2018-09-29T17:38:38.263Z,9.36
2018-09-29T17:41:07.044Z,9.55
2018-09-29T17:43:35.830Z,9.74
2018-09-29T17:46:04.392Z,9.85
2018-09-29T17:48:33.344Z,9.71
2018-09-29T17:51:01.894Z,9.47
2018-09-29T17:56:14.117Z,9.27
2018-09-29T17:58:44.887Z,9.08
2018-09-29T18:03:57.808Z,8.83
2018-09-29T18:06:26.669Z,8.69
2018-09-29T18:08:55.321Z,8.71
2018-09-29T18:11:24.156Z,8.70
2018-09-29T18:13:52.853Z,8.68
2018-09-29T18:16:21.539Z,8.58
2018-09-29T18:18:50.140Z,8.44
2018-09-29T18:21:20.369Z,8.29
2018-09-29T18:23:49.229Z,8.18
2018-09-29T18:26:17.935Z,8.18
2018-09-29T18:28:46.685Z,8.11
2018-09-29T18:31:15.353Z,7.97
2018-09-29T18:33:44.117Z,7.90
2018-09-29T18:36:12.913Z,7.87
2018-09-29T18:38:41.655Z,7.74
2018-09-29T18:41:10.352Z,7.69
2018-09-29T18:43:49.211Z,7.67
2018-09-29T18:46:22.192Z,7.55
2018-09-29T18:48:52.247Z,7.43
2018-09-29T18:51:21.010Z,7.30
2018-09-29T18:53:49.682Z,7.25
2018-09-29T18:56:18.242Z,7.38
2018-09-29T18:58:46.951Z,7.34
2018-09-29T19:01:15.646Z,7.20
2018-09-29T19:03:44.202Z,7.05
2018-09-29T19:06:13.307Z,6.95
2018-09-29T19:08:41.877Z,6.89
2018-09-29T19:11:10.647Z,6.96
2018-09-29T19:13:39.464Z,7.04
2018-09-29T19:16:08.162Z,6.91
2018-09-29T19:18:36.723Z,6.80
2018-09-29T19:21:05.313Z,6.70
2018-09-29T19:23:34.578Z,6.61
2018-09-29T19:26:03.163Z,6.54
2018-09-29T19:28:31.709Z,6.49
2018-09-29T19:31:00.440Z,6.41
2018-09-29T19:33:29.161Z,6.36
2018-09-29T19:35:57.735Z,6.31
2018-09-29T19:38:26.290Z,6.26
2018-09-29T19:40:54.858Z,6.20
2018-09-29T19:43:23.465Z,6.17
2018-09-29T19:45:52.095Z,6.12
2018-09-29T19:48:21.042Z,6.35
2018-09-29T19:50:49.776Z,6.43
2018-09-29T19:53:18.758Z,6.42
2018-09-29T19:55:47.351Z,6.50
2018-09-29T19:58:15.926Z,6.47
2018-09-29T20:00:44.466Z,6.42
2018-09-29T20:03:13.021Z,6.36
2018-09-29T20:05:41.803Z,6.23
2018-09-29T20:08:10.426Z,6.17
2018-09-29T20:10:39.085Z,6.10
2018-09-29T20:13:07.657Z,6.11
2018-09-29T20:15:36.208Z,6.14
2018-09-29T20:18:04.752Z,6.05
2018-09-29T20:20:33.337Z,5.99
2018-09-29T20:23:02.128Z,5.90
2018-09-29T20:25:30.744Z,5.79
2018-09-29T20:27:59.409Z,5.83
2018-09-29T20:30:28.242Z,5.88
2018-09-29T20:32:57.030Z,5.86
2018-09-29T20:35:25.637Z,5.87
2018-09-29T20:37:54.198Z,5.80
2018-09-29T20:40:22.950Z,5.79
2018-09-29T20:42:52.091Z,5.77
2018-09-29T20:45:21.278Z,5.65
2018-09-29T20:47:49.837Z,5.52
2018-09-29T20:50:18.435Z,5.39
2018-09-29T20:52:46.955Z,5.43
2018-09-29T20:55:15.554Z,5.39
2018-09-29T20:57:44.166Z,5.28
2018-09-29T21:00:12.828Z,5.25
2018-09-29T21:02:41.595Z,5.17
2018-09-29T21:05:10.174Z,5.16
2018-09-29T21:07:38.819Z,5.17
2018-09-29T21:10:07.417Z,5.23
2018-09-29T21:12:35.983Z,5.29
2018-09-29T21:15:04.591Z,5.39
2018-09-29T21:17:33.289Z,5.40
2018-09-29T21:20:01.933Z,5.42
2018-09-29T21:22:30.567Z,5.47
2018-09-29T21:24:59.121Z,5.41
2018-09-29T21:27:27.666Z,5.39
2018-09-29T21:29:56.242Z,5.26
2018-09-29T21:32:24.870Z,5.23
2018-09-29T21:34:53.686Z,5.13
2018-09-29T21:37:22.936Z,5.14
2018-09-29T21:39:51.517Z,5.05
2018-09-29T21:42:20.114Z,5.04
2018-09-29T21:44:48.809Z,4.97
2018-09-29T21:47:17.584Z,4.91
2018-09-29T21:49:46.244Z,5.00
2018-09-29T21:52:14.994Z,4.97
2018-09-29T21:54:43.914Z,4.85
2018-09-29T21:57:14.678Z,4.84
2018-09-29T21:59:43.478Z,4.97
2018-09-29T22:02:12.042Z,5.00
2018-09-29T22:04:40.728Z,5.00
2018-09-29T22:07:09.402Z,5.03
2018-09-29T22:09:37.984Z,4.87
2018-09-29T22:12:06.617Z,4.76
2018-09-29T22:14:35.301Z,4.74
2018-09-29T22:17:03.939Z,4.70
2018-09-29T22:19:32.485Z,4.62
2018-09-29T22:22:01.055Z,4.45
2018-09-29T22:24:29.641Z,4.42
2018-09-29T22:26:58.223Z,4.31
2018-09-29T22:29:26.761Z,4.30
2018-09-29T22:31:55.477Z,4.47
2018-09-29T22:34:25.998Z,4.39
2018-09-29T22:36:54.765Z,4.24
2018-09-29T22:39:23.460Z,4.08
2018-09-29T22:41:52.003Z,3.97
2018-09-29T22:44:20.558Z,3.88
2018-09-29T22:46:49.162Z,3.82
2018-09-29T22:49:17.740Z,3.80
2018-09-29T22:51:46.489Z,3.76
2018-09-29T22:54:15.111Z,3.86
2018-09-29T22:56:43.685Z,4.05
2018-09-29T22:59:12.237Z,4.11
2018-09-29T23:01:40.857Z,4.25
2018-09-29T23:04:09.413Z,4.21
2018-09-29T23:06:38.325Z,4.12
2018-09-29T23:09:09.443Z,4.00
2018-09-29T23:11:38.002Z,3.88
2018-09-29T23:14:06.718Z,3.81
2018-09-29T23:16:35.316Z,3.83
2018-09-29T23:19:03.931Z,3.79
2018-09-29T23:21:32.670Z,3.79
2018-09-29T23:24:01.275Z,3.80
2018-09-29T23:26:29.887Z,3.83
2018-09-29T23:28:58.454Z,3.86
2018-09-29T23:31:27.162Z,3.81
2018-09-29T23:33:55.764Z,3.78
2018-09-29T23:36:24.317Z,3.82
2018-09-29T23:38:52.974Z,3.83
2018-09-29T23:41:21.546Z,3.82
2018-09-29T23:43:50.099Z,3.70
2018-09-29T23:46:18.827Z,3.64
2018-09-29T23:48:47.570Z,3.58
2018-09-29T23:51:22.791Z,3.56
2018-09-29T23:53:51.355Z,3.55
2018-09-29T23:56:19.905Z,3.56
2018-09-29T23:58:48.761Z,3.53
